sensor_id;sensor_type;location;lat;lon;timestamp;temperature;humidity
44047;DHT22;29713;-33.888;151.150;2023-04-03T00:01:17;21.20;99.90
44047;DHT22;29713;-33.888;151.150;2023-04-03T00:03:45;21.20;99.90
44047;DHT22;29713;-33.888;151.150;2023-04-03T00:06:13;21.20;99.90
44047;DHT22;29713;-33.888;151.150;2023-04-03T00:08:41;21.20;99.90
44047;DHT22;29713;-33.888;151.150;2023-04-03T00:11:09;21.20;99.90
44047;DHT22;29713;-33.888;151.150;2023-04-03T00:13:37;21.10;99.90
44047;DHT22;29713;-33.888;151.150;2023-04-03T00:16:06;21.00;99.90
44047;DHT22;29713;-33.888;151.150;2023-04-03T00:18:33;21.00;99.90
44047;DHT22;29713;-33.888;151.150;2023-04-03T00:21:01;20.90;99.90
44047;DHT22;29713;-33.888;151.150;2023-04-03T00:23:28;20.80;99.90
44047;DHT22;29713;-33.888;151.150;2023-04-03T00:25:56;20.80;99.90
44047;DHT22;29713;-33.888;151.150;2023-04-03T00:28:23;20.70;99.90
44047;DHT22;29713;-33.888;151.150;2023-04-03T00:30:51;20.70;99.90
44047;DHT22;29713;-33.888;151.150;2023-04-03T00:33:19;20.80;99.90
44047;DHT22;29713;-33.888;151.150;2023-04-03T00:35:51;20.80;99.90
44047;DHT22;29713;-33.888;151.150;2023-04-03T00:38:18;20.80;99.90
44047;DHT22;29713;-33.888;151.150;2023-04-03T00:40:47;20.80;99.90
44047;DHT22;29713;-33.888;151.150;2023-04-03T00:43:23;20.80;99.90
44047;DHT22;29713;-33.888;151.150;2023-04-03T00:45:52;20.80;99.90
44047;DHT22;29713;-33.888;151.150;2023-04-03T00:48:35;21.00;99.90
44047;DHT22;29713;-33.888;151.150;2023-04-03T00:51:05;21.20;99.90
44047;DHT22;29713;-33.888;151.150;2023-04-03T00:56:35;21.40;99.90
44047;DHT22;29713;-33.888;151.150;2023-04-03T00:59:16;21.60;99.90
44047;DHT22;29713;-33.888;151.150;2023-04-03T01:01:49;21.70;99.90
44047;DHT22;29713;-33.888;151.150;2023-04-03T01:04:32;22.00;99.90
44047;DHT22;29713;-33.888;151.150;2023-04-03T01:07:08;22.40;99.90
44047;DHT22;29713;-33.888;151.150;2023-04-03T01:09:37;22.70;99.90
44047;DHT22;29713;-33.888;151.150;2023-04-03T01:12:19;23.00;99.90
44047;DHT22;29713;-33.888;151.150;2023-04-03T01:14:51;23.50;99.90
44047;DHT22;29713;-33.888;151.150;2023-04-03T01:17:37;23.80;99.90
44047;DHT22;29713;-33.888;151.150;2023-04-03T01:25:51;24.80;99.90
44047;DHT22;29713;-33.888;151.150;2023-04-03T01:28:25;25.10;99.90
44047;DHT22;29713;-33.888;151.150;2023-04-03T01:33:56;25.40;99.90
44047;DHT22;29713;-33.888;151.150;2023-04-03T01:36:31;25.50;99.90
44047;DHT22;29713;-33.888;151.150;2023-04-03T01:38:59;25.60;99.90
44047;DHT22;29713;-33.888;151.150;2023-04-03T01:41:28;25.80;99.90
44047;DHT22;29713;-33.888;151.150;2023-04-03T01:43:56;25.80;99.90
44047;DHT22;29713;-33.888;151.150;2023-04-03T01:46:23;26.10;99.90
44047;DHT22;29713;-33.888;151.150;2023-04-03T01:48:50;26.20;99.90
44047;DHT22;29713;-33.888;151.150;2023-04-03T01:51:18;26.50;99.90
44047;DHT22;29713;-33.888;151.150;2023-04-03T01:53:45;26.70;99.90
44047;DHT22;29713;-33.888;151.150;2023-04-03T01:56:12;27.00;99.90
44047;DHT22;29713;-33.888;151.150;2023-04-03T01:58:40;27.00;99.90
44047;DHT22;29713;-33.888;151.150;2023-04-03T02:01:07;27.10;99.90
44047;DHT22;29713;-33.888;151.150;2023-04-03T02:03:34;27.00;99.90
44047;DHT22;29713;-33.888;151.150;2023-04-03T02:06:02;27.10;99.90
44047;DHT22;29713;-33.888;151.150;2023-04-03T02:08:29;27.30;99.90
44047;DHT22;29713;-33.888;151.150;2023-04-03T02:10:56;27.40;99.90
44047;DHT22;29713;-33.888;151.150;2023-04-03T02:13:24;27.60;99.90
44047;DHT22;29713;-33.888;151.150;2023-04-03T02:15:51;28.00;99.90
44047;DHT22;29713;-33.888;151.150;2023-04-03T02:18:18;28.40;99.90
44047;DHT22;29713;-33.888;151.150;2023-04-03T02:20:47;28.90;99.90
44047;DHT22;29713;-33.888;151.150;2023-04-03T02:23:14;29.10;99.90
44047;DHT22;29713;-33.888;151.150;2023-04-03T02:25:42;29.00;99.90
44047;DHT22;29713;-33.888;151.150;2023-04-03T02:28:09;29.20;99.90
44047;DHT22;29713;-33.888;151.150;2023-04-03T02:30:36;29.20;99.90
44047;DHT22;29713;-33.888;151.150;2023-04-03T02:33:04;29.60;99.90
44047;DHT22;29713;-33.888;151.150;2023-04-03T02:35:31;30.00;99.90
44047;DHT22;29713;-33.888;151.150;2023-04-03T02:37:58;30.20;99.90
44047;DHT22;29713;-33.888;151.150;2023-04-03T02:40:26;30.10;99.90
44047;DHT22;29713;-33.888;151.150;2023-04-03T02:42:53;30.20;99.90
44047;DHT22;29713;-33.888;151.150;2023-04-03T02:45:21;30.60;99.90
44047;DHT22;29713;-33.888;151.150;2023-04-03T02:47:48;30.70;99.90
44047;DHT22;29713;-33.888;151.150;2023-04-03T02:50:15;30.60;99.90
44047;DHT22;29713;-33.888;151.150;2023-04-03T02:52:43;30.90;99.90
44047;DHT22;29713;-33.888;151.150;2023-04-03T02:55:14;31.20;99.90
44047;DHT22;29713;-33.888;151.150;2023-04-03T02:57:42;31.10;99.90
44047;DHT22;29713;-33.888;151.150;2023-04-03T03:00:10;31.10;99.90
44047;DHT22;29713;-33.888;151.150;2023-04-03T03:02:37;30.70;99.90
44047;DHT22;29713;-33.888;151.150;2023-04-03T03:05:05;30.70;99.90
44047;DHT22;29713;-33.888;151.150;2023-04-03T03:07:33;30.10;99.90
44047;DHT22;29713;-33.888;151.150;2023-04-03T03:10:00;29.90;99.90
44047;DHT22;29713;-33.888;151.150;2023-04-03T03:12:31;29.90;99.90
44047;DHT22;29713;-33.888;151.150;2023-04-03T03:14:58;30.00;99.90
44047;DHT22;29713;-33.888;151.150;2023-04-03T03:17:25;29.90;99.90
44047;DHT22;29713;-33.888;151.150;2023-04-03T03:19:53;29.50;99.90
44047;DHT22;29713;-33.888;151.150;2023-04-03T03:22:20;28.90;99.90
44047;DHT22;29713;-33.888;151.150;2023-04-03T03:24:50;28.10;99.90
44047;DHT22;29713;-33.888;151.150;2023-04-03T03:27:18;27.30;99.90
44047;DHT22;29713;-33.888;151.150;2023-04-03T03:29:45;26.70;99.90
44047;DHT22;29713;-33.888;151.150;2023-04-03T03:32:12;26.20;99.90
44047;DHT22;29713;-33.888;151.150;2023-04-03T03:34:40;26.00;99.90
44047;DHT22;29713;-33.888;151.150;2023-04-03T03:37:07;26.30;99.90
44047;DHT22;29713;-33.888;151.150;2023-04-03T03:39:34;26.60;99.90
44047;DHT22;29713;-33.888;151.150;2023-04-03T03:42:02;27.10;99.90
44047;DHT22;29713;-33.888;151.150;2023-04-03T03:44:29;27.60;99.90
44047;DHT22;29713;-33.888;151.150;2023-04-03T03:46:57;27.80;99.90
44047;DHT22;29713;-33.888;151.150;2023-04-03T03:49:24;28.00;99.90
44047;DHT22;29713;-33.888;151.150;2023-04-03T03:51:52;28.60;99.90
44047;DHT22;29713;-33.888;151.150;2023-04-03T03:54:19;29.20;99.90
44047;DHT22;29713;-33.888;151.150;2023-04-03T03:56:46;28.80;99.90
44047;DHT22;29713;-33.888;151.150;2023-04-03T03:59:14;28.50;99.90
44047;DHT22;29713;-33.888;151.150;2023-04-03T04:01:41;28.80;99.90
44047;DHT22;29713;-33.888;151.150;2023-04-03T04:04:09;29.40;99.90
44047;DHT22;29713;-33.888;151.150;2023-04-03T04:06:36;29.80;99.90
44047;DHT22;29713;-33.888;151.150;2023-04-03T04:09:04;29.90;99.90
44047;DHT22;29713;-33.888;151.150;2023-04-03T04:11:31;30.00;99.90
44047;DHT22;29713;-33.888;151.150;2023-04-03T04:13:59;30.20;99.90
44047;DHT22;29713;-33.888;151.150;2023-04-03T04:16:27;30.20;99.90
44047;DHT22;29713;-33.888;151.150;2023-04-03T04:19:00;30.40;99.90
44047;DHT22;29713;-33.888;151.150;2023-04-03T04:21:28;30.30;99.90
44047;DHT22;29713;-33.888;151.150;2023-04-03T04:23:55;30.40;99.90
44047;DHT22;29713;-33.888;151.150;2023-04-03T04:26:22;30.20;99.90
44047;DHT22;29713;-33.888;151.150;2023-04-03T04:28:50;30.10;99.90
44047;DHT22;29713;-33.888;151.150;2023-04-03T04:31:18;30.10;99.90
44047;DHT22;29713;-33.888;151.150;2023-04-03T04:33:45;29.90;99.90
44047;DHT22;29713;-33.888;151.150;2023-04-03T04:36:12;29.40;99.90
44047;DHT22;29713;-33.888;151.150;2023-04-03T04:38:41;29.20;99.90
44047;DHT22;29713;-33.888;151.150;2023-04-03T04:41:09;28.80;99.90
44047;DHT22;29713;-33.888;151.150;2023-04-03T04:43:36;28.60;99.90
44047;DHT22;29713;-33.888;151.150;2023-04-03T04:46:08;28.60;99.90
44047;DHT22;29713;-33.888;151.150;2023-04-03T04:48:38;28.40;99.90
44047;DHT22;29713;-33.888;151.150;2023-04-03T04:51:07;28.30;99.90
44047;DHT22;29713;-33.888;151.150;2023-04-03T04:53:34;27.80;99.90
44047;DHT22;29713;-33.888;151.150;2023-04-03T04:56:02;27.30;99.90
44047;DHT22;29713;-33.888;151.150;2023-04-03T04:58:29;27.50;99.90
44047;DHT22;29713;-33.888;151.150;2023-04-03T05:01:06;27.60;99.90
44047;DHT22;29713;-33.888;151.150;2023-04-03T05:03:34;27.60;99.90
44047;DHT22;29713;-33.888;151.150;2023-04-03T05:06:02;28.00;99.90
44047;DHT22;29713;-33.888;151.150;2023-04-03T05:08:29;28.20;99.90
44047;DHT22;29713;-33.888;151.150;2023-04-03T05:10:57;28.40;99.90
44047;DHT22;29713;-33.888;151.150;2023-04-03T05:13:25;28.20;99.90
44047;DHT22;29713;-33.888;151.150;2023-04-03T05:15:52;28.10;99.90
44047;DHT22;29713;-33.888;151.150;2023-04-03T05:18:19;28.10;99.90
44047;DHT22;29713;-33.888;151.150;2023-04-03T05:20:49;27.70;99.90
44047;DHT22;29713;-33.888;151.150;2023-04-03T05:23:17;27.30;99.90
44047;DHT22;29713;-33.888;151.150;2023-04-03T05:25:45;27.10;99.90
44047;DHT22;29713;-33.888;151.150;2023-04-03T05:28:13;27.20;99.90
44047;DHT22;29713;-33.888;151.150;2023-04-03T05:30:41;27.10;99.90
44047;DHT22;29713;-33.888;151.150;2023-04-03T05:33:11;27.20;99.90
44047;DHT22;29713;-33.888;151.150;2023-04-03T05:35:38;27.10;99.90
44047;DHT22;29713;-33.888;151.150;2023-04-03T05:38:08;27.30;99.90
44047;DHT22;29713;-33.888;151.150;2023-04-03T05:40:35;27.50;99.90
44047;DHT22;29713;-33.888;151.150;2023-04-03T05:43:02;27.50;99.90
44047;DHT22;29713;-33.888;151.150;2023-04-03T05:45:30;27.50;99.90
44047;DHT22;29713;-33.888;151.150;2023-04-03T05:47:57;27.50;99.90
44047;DHT22;29713;-33.888;151.150;2023-04-03T05:50:25;27.20;99.90
44047;DHT22;29713;-33.888;151.150;2023-04-03T05:52:54;27.00;99.90
44047;DHT22;29713;-33.888;151.150;2023-04-03T05:55:22;27.10;99.90
44047;DHT22;29713;-33.888;151.150;2023-04-03T05:57:49;27.00;99.90
44047;DHT22;29713;-33.888;151.150;2023-04-03T06:00:17;27.10;99.90
44047;DHT22;29713;-33.888;151.150;2023-04-03T06:02:45;27.10;99.90
44047;DHT22;29713;-33.888;151.150;2023-04-03T06:05:12;27.10;99.90
44047;DHT22;29713;-33.888;151.150;2023-04-03T06:07:40;26.90;99.90
44047;DHT22;29713;-33.888;151.150;2023-04-03T06:10:10;26.40;99.90
44047;DHT22;29713;-33.888;151.150;2023-04-03T06:12:38;25.90;99.90
44047;DHT22;29713;-33.888;151.150;2023-04-03T06:15:05;25.60;99.90
44047;DHT22;29713;-33.888;151.150;2023-04-03T06:17:34;25.10;99.90
44047;DHT22;29713;-33.888;151.150;2023-04-03T06:20:02;24.60;99.90
44047;DHT22;29713;-33.888;151.150;2023-04-03T06:22:30;24.20;99.90
44047;DHT22;29713;-33.888;151.150;2023-04-03T06:24:58;23.90;99.90
44047;DHT22;29713;-33.888;151.150;2023-04-03T06:27:25;23.90;99.90
44047;DHT22;29713;-33.888;151.150;2023-04-03T06:29:52;24.10;99.90
44047;DHT22;29713;-33.888;151.150;2023-04-03T06:32:20;24.20;99.90
44047;DHT22;29713;-33.888;151.150;2023-04-03T06:34:47;24.40;99.90
44047;DHT22;29713;-33.888;151.150;2023-04-03T06:37:19;24.60;99.90
44047;DHT22;29713;-33.888;151.150;2023-04-03T06:39:47;24.80;99.90
44047;DHT22;29713;-33.888;151.150;2023-04-03T06:42:14;24.90;99.90
44047;DHT22;29713;-33.888;151.150;2023-04-03T06:44:42;24.80;99.90
44047;DHT22;29713;-33.888;151.150;2023-04-03T06:47:14;24.60;99.90
44047;DHT22;29713;-33.888;151.150;2023-04-03T06:49:42;24.50;99.90
44047;DHT22;29713;-33.888;151.150;2023-04-03T06:52:10;24.40;99.90
44047;DHT22;29713;-33.888;151.150;2023-04-03T06:54:40;24.30;99.90
44047;DHT22;29713;-33.888;151.150;2023-04-03T06:57:08;24.10;99.90
44047;DHT22;29713;-33.888;151.150;2023-04-03T06:59:35;24.00;99.90
44047;DHT22;29713;-33.888;151.150;2023-04-03T07:02:03;23.90;99.90
44047;DHT22;29713;-33.888;151.150;2023-04-03T07:04:30;23.70;99.90
44047;DHT22;29713;-33.888;151.150;2023-04-03T07:06:58;23.60;99.90
44047;DHT22;29713;-33.888;151.150;2023-04-03T07:09:25;23.50;99.90
44047;DHT22;29713;-33.888;151.150;2023-04-03T07:11:53;23.40;99.90
44047;DHT22;29713;-33.888;151.150;2023-04-03T07:14:20;23.30;99.90
44047;DHT22;29713;-33.888;151.150;2023-04-03T07:16:48;23.20;99.90
44047;DHT22;29713;-33.888;151.150;2023-04-03T07:19:18;23.20;99.90
44047;DHT22;29713;-33.888;151.150;2023-04-03T07:21:45;23.10;99.90
44047;DHT22;29713;-33.888;151.150;2023-04-03T07:24:13;23.00;99.90
44047;DHT22;29713;-33.888;151.150;2023-04-03T07:26:41;22.90;99.90
44047;DHT22;29713;-33.888;151.150;2023-04-03T07:29:08;22.90;99.90
44047;DHT22;29713;-33.888;151.150;2023-04-03T07:31:35;22.90;99.90
44047;DHT22;29713;-33.888;151.150;2023-04-03T07:34:03;22.80;99.90
44047;DHT22;29713;-33.888;151.150;2023-04-03T07:36:30;22.80;99.90
44047;DHT22;29713;-33.888;151.150;2023-04-03T07:38:59;22.80;99.90
44047;DHT22;29713;-33.888;151.150;2023-04-03T07:41:27;22.70;99.90
44047;DHT22;29713;-33.888;151.150;2023-04-03T07:43:55;22.60;99.90
44047;DHT22;29713;-33.888;151.150;2023-04-03T07:46:23;22.60;99.90
44047;DHT22;29713;-33.888;151.150;2023-04-03T07:48:51;22.50;99.90
44047;DHT22;29713;-33.888;151.150;2023-04-03T07:51:18;22.40;99.90
44047;DHT22;29713;-33.888;151.150;2023-04-03T07:53:46;22.40;99.90
44047;DHT22;29713;-33.888;151.150;2023-04-03T07:56:13;22.30;99.90
44047;DHT22;29713;-33.888;151.150;2023-04-03T07:58:41;22.30;99.90
44047;DHT22;29713;-33.888;151.150;2023-04-03T08:01:08;22.30;99.90
44047;DHT22;29713;-33.888;151.150;2023-04-03T08:03:36;22.20;99.90
44047;DHT22;29713;-33.888;151.150;2023-04-03T08:06:06;22.20;99.90
44047;DHT22;29713;-33.888;151.150;2023-04-03T08:08:34;22.10;99.90
44047;DHT22;29713;-33.888;151.150;2023-04-03T08:11:02;22.10;99.90
44047;DHT22;29713;-33.888;151.150;2023-04-03T08:13:32;22.10;99.90
44047;DHT22;29713;-33.888;151.150;2023-04-03T08:16:11;22.00;99.90
44047;DHT22;29713;-33.888;151.150;2023-04-03T08:18:39;22.00;99.90
44047;DHT22;29713;-33.888;151.150;2023-04-03T08:21:10;22.00;99.90
44047;DHT22;29713;-33.888;151.150;2023-04-03T08:23:40;21.90;99.90
44047;DHT22;29713;-33.888;151.150;2023-04-03T08:26:15;21.90;99.90
44047;DHT22;29713;-33.888;151.150;2023-04-03T08:28:43;21.80;99.90
44047;DHT22;29713;-33.888;151.150;2023-04-03T08:31:13;21.80;99.90
44047;DHT22;29713;-33.888;151.150;2023-04-03T08:33:41;21.70;99.90
44047;DHT22;29713;-33.888;151.150;2023-04-03T08:36:17;21.70;99.90
44047;DHT22;29713;-33.888;151.150;2023-04-03T08:38:46;21.70;99.90
44047;DHT22;29713;-33.888;151.150;2023-04-03T08:49:33;21.70;99.90
44047;DHT22;29713;-33.888;151.150;2023-04-03T08:52:12;21.70;99.90
44047;DHT22;29713;-33.888;151.150;2023-04-03T08:55:00;21.70;99.90
44047;DHT22;29713;-33.888;151.150;2023-04-03T08:57:40;21.70;99.90
44047;DHT22;29713;-33.888;151.150;2023-04-03T09:02:46;21.70;99.90
44047;DHT22;29713;-33.888;151.150;2023-04-03T09:05:19;21.70;99.90
44047;DHT22;29713;-33.888;151.150;2023-04-03T09:08:00;21.70;99.90
44047;DHT22;29713;-33.888;151.150;2023-04-03T09:10:34;21.70;99.90
44047;DHT22;29713;-33.888;151.150;2023-04-03T09:13:30;21.70;99.90
44047;DHT22;29713;-33.888;151.150;2023-04-03T09:16:03;21.70;99.90
44047;DHT22;29713;-33.888;151.150;2023-04-03T09:18:38;21.60;99.90
44047;DHT22;29713;-33.888;151.150;2023-04-03T09:21:24;21.60;99.90
44047;DHT22;29713;-33.888;151.150;2023-04-03T09:23:54;21.60;99.90
44047;DHT22;29713;-33.888;151.150;2023-04-03T09:26:30;21.60;99.90
44047;DHT22;29713;-33.888;151.150;2023-04-03T09:29:02;21.60;99.90
44047;DHT22;29713;-33.888;151.150;2023-04-03T09:31:40;21.60;99.90
44047;DHT22;29713;-33.888;151.150;2023-04-03T09:34:18;21.60;99.90
44047;DHT22;29713;-33.888;151.150;2023-04-03T09:36:53;21.60;99.90
44047;DHT22;29713;-33.888;151.150;2023-04-03T09:39:26;21.50;99.90
44047;DHT22;29713;-33.888;151.150;2023-04-03T09:42:05;21.50;99.90
44047;DHT22;29713;-33.888;151.150;2023-04-03T09:44:39;21.50;99.90
44047;DHT22;29713;-33.888;151.150;2023-04-03T09:47:35;21.50;99.90
44047;DHT22;29713;-33.888;151.150;2023-04-03T09:50:20;21.50;99.90
44047;DHT22;29713;-33.888;151.150;2023-04-03T09:52:50;21.40;99.90
44047;DHT22;29713;-33.888;151.150;2023-04-03T09:55:26;21.40;99.90
44047;DHT22;29713;-33.888;151.150;2023-04-03T09:58:00;21.40;99.90
44047;DHT22;29713;-33.888;151.150;2023-04-03T10:02:56;21.40;99.90
44047;DHT22;29713;-33.888;151.150;2023-04-03T10:05:39;21.40;99.90
44047;DHT22;29713;-33.888;151.150;2023-04-03T10:08:20;21.50;99.90
44047;DHT22;29713;-33.888;151.150;2023-04-03T10:13:34;21.50;99.90
44047;DHT22;29713;-33.888;151.150;2023-04-03T10:16:15;21.50;99.90
44047;DHT22;29713;-33.888;151.150;2023-04-03T10:21:55;21.50;99.90
44047;DHT22;29713;-33.888;151.150;2023-04-03T10:27:29;21.50;99.90
44047;DHT22;29713;-33.888;151.150;2023-04-03T10:50:27;21.20;99.90
44047;DHT22;29713;-33.888;151.150;2023-04-03T10:57:54;21.20;99.90
44047;DHT22;29713;-33.888;151.150;2023-04-03T11:00:44;21.20;99.90
44047;DHT22;29713;-33.888;151.150;2023-04-03T11:03:51;21.10;99.90
44047;DHT22;29713;-33.888;151.150;2023-04-03T11:06:14;21.10;99.90
44047;DHT22;29713;-33.888;151.150;2023-04-03T11:08:53;21.10;99.90
44047;DHT22;29713;-33.888;151.150;2023-04-03T11:11:34;21.00;99.90
44047;DHT22;29713;-33.888;151.150;2023-04-03T11:20:14;20.90;99.90
44047;DHT22;29713;-33.888;151.150;2023-04-03T11:22:50;20.90;99.90
44047;DHT22;29713;-33.888;151.150;2023-04-03T11:25:25;20.80;99.90
44047;DHT22;29713;-33.888;151.150;2023-04-03T11:27:58;20.80;99.90
44047;DHT22;29713;-33.888;151.150;2023-04-03T11:35:57;20.70;99.90
44047;DHT22;29713;-33.888;151.150;2023-04-03T11:38:36;20.60;99.90
44047;DHT22;29713;-33.888;151.150;2023-04-03T11:41:07;20.50;99.90
44047;DHT22;29713;-33.888;151.150;2023-04-03T11:43:41;20.50;99.90
44047;DHT22;29713;-33.888;151.150;2023-04-03T11:46:10;20.40;99.90
44047;DHT22;29713;-33.888;151.150;2023-04-03T11:53:44;20.20;99.90
44047;DHT22;29713;-33.888;151.150;2023-04-03T12:01:52;20.10;99.90
44047;DHT22;29713;-33.888;151.150;2023-04-03T12:04:22;20.10;99.90
44047;DHT22;29713;-33.888;151.150;2023-04-03T12:07:26;20.00;99.90
44047;DHT22;29713;-33.888;151.150;2023-04-03T12:12:43;20.00;99.90
44047;DHT22;29713;-33.888;151.150;2023-04-03T12:18:44;19.80;99.90
44047;DHT22;29713;-33.888;151.150;2023-04-03T12:37:48;19.40;99.90
44047;DHT22;29713;-33.888;151.150;2023-04-03T12:40:44;19.50;99.90
44047;DHT22;29713;-33.888;151.150;2023-04-03T12:48:54;19.30;99.90
44047;DHT22;29713;-33.888;151.150;2023-04-03T12:54:03;19.30;99.90
44047;DHT22;29713;-33.888;151.150;2023-04-03T12:56:32;19.20;99.90
44047;DHT22;29713;-33.888;151.150;2023-04-03T12:59:21;19.20;99.90
44047;DHT22;29713;-33.888;151.150;2023-04-03T13:01:56;19.10;99.90
44047;DHT22;29713;-33.888;151.150;2023-04-03T13:04:26;19.10;99.90
44047;DHT22;29713;-33.888;151.150;2023-04-03T13:06:54;19.10;99.90
44047;DHT22;29713;-33.888;151.150;2023-04-03T13:09:24;19.10;99.90
44047;DHT22;29713;-33.888;151.150;2023-04-03T13:12:11;19.10;99.90
44047;DHT22;29713;-33.888;151.150;2023-04-03T13:14:39;19.10;99.90
44047;DHT22;29713;-33.888;151.150;2023-04-03T13:17:14;19.10;99.90
44047;DHT22;29713;-33.888;151.150;2023-04-03T13:19:43;19.10;99.90
44047;DHT22;29713;-33.888;151.150;2023-04-03T13:22:36;19.10;99.90
44047;DHT22;29713;-33.888;151.150;2023-04-03T13:25:13;19.10;99.90
44047;DHT22;29713;-33.888;151.150;2023-04-03T13:27:41;19.10;99.90
44047;DHT22;29713;-33.888;151.150;2023-04-03T13:30:37;19.10;99.90
44047;DHT22;29713;-33.888;151.150;2023-04-03T13:33:22;19.10;99.90
44047;DHT22;29713;-33.888;151.150;2023-04-03T13:35:56;19.20;99.90
44047;DHT22;29713;-33.888;151.150;2023-04-03T13:38:28;19.20;99.90
44047;DHT22;29713;-33.888;151.150;2023-04-03T13:41:03;19.20;99.90
44047;DHT22;29713;-33.888;151.150;2023-04-03T13:43:35;19.20;99.90
44047;DHT22;29713;-33.888;151.150;2023-04-03T13:46:05;19.20;99.90
44047;DHT22;29713;-33.888;151.150;2023-04-03T13:48:41;19.10;99.90
44047;DHT22;29713;-33.888;151.150;2023-04-03T13:53:48;19.00;99.90
44047;DHT22;29713;-33.888;151.150;2023-04-03T14:01:48;18.90;99.90
44047;DHT22;29713;-33.888;151.150;2023-04-03T14:04:28;18.80;99.90
44047;DHT22;29713;-33.888;151.150;2023-04-03T14:06:57;18.80;99.90
44047;DHT22;29713;-33.888;151.150;2023-04-03T14:09:26;18.70;99.90
44047;DHT22;29713;-33.888;151.150;2023-04-03T14:12:00;18.70;99.90
44047;DHT22;29713;-33.888;151.150;2023-04-03T14:14:36;18.70;99.90
44047;DHT22;29713;-33.888;151.150;2023-04-03T14:17:15;18.70;99.90
44047;DHT22;29713;-33.888;151.150;2023-04-03T14:19:44;18.60;99.90
44047;DHT22;29713;-33.888;151.150;2023-04-03T14:24:45;18.60;99.90
44047;DHT22;29713;-33.888;151.150;2023-04-03T14:27:19;18.50;99.90
44047;DHT22;29713;-33.888;151.150;2023-04-03T14:29:49;18.50;99.90
44047;DHT22;29713;-33.888;151.150;2023-04-03T14:32:18;18.50;99.90
44047;DHT22;29713;-33.888;151.150;2023-04-03T14:34:47;18.50;99.90
44047;DHT22;29713;-33.888;151.150;2023-04-03T14:37:20;18.50;99.90
44047;DHT22;29713;-33.888;151.150;2023-04-03T14:39:50;18.40;99.90
44047;DHT22;29713;-33.888;151.150;2023-04-03T14:42:20;18.50;99.90
44047;DHT22;29713;-33.888;151.150;2023-04-03T14:44:49;18.50;99.90
44047;DHT22;29713;-33.888;151.150;2023-04-03T14:47:22;18.60;99.90
44047;DHT22;29713;-33.888;151.150;2023-04-03T14:49:51;18.60;99.90
44047;DHT22;29713;-33.888;151.150;2023-04-03T14:52:30;18.60;99.90
44047;DHT22;29713;-33.888;151.150;2023-04-03T14:54:58;18.60;99.90
44047;DHT22;29713;-33.888;151.150;2023-04-03T14:57:28;18.50;99.90
44047;DHT22;29713;-33.888;151.150;2023-04-03T14:59:57;18.50;99.90
44047;DHT22;29713;-33.888;151.150;2023-04-03T15:02:36;18.50;99.90
44047;DHT22;29713;-33.888;151.150;2023-04-03T15:05:06;18.50;99.90
44047;DHT22;29713;-33.888;151.150;2023-04-03T15:07:37;18.50;99.90
44047;DHT22;29713;-33.888;151.150;2023-04-03T15:10:31;18.50;99.90
44047;DHT22;29713;-33.888;151.150;2023-04-03T15:12:58;18.40;99.90
44047;DHT22;29713;-33.888;151.150;2023-04-03T15:15:29;18.40;99.90
44047;DHT22;29713;-33.888;151.150;2023-04-03T15:17:57;18.40;99.90
44047;DHT22;29713;-33.888;151.150;2023-04-03T15:20:26;18.40;99.90
44047;DHT22;29713;-33.888;151.150;2023-04-03T15:22:54;18.30;99.90
44047;DHT22;29713;-33.888;151.150;2023-04-03T15:25:23;18.30;99.90
44047;DHT22;29713;-33.888;151.150;2023-04-03T15:27:52;18.30;99.90
44047;DHT22;29713;-33.888;151.150;2023-04-03T15:30:20;18.40;99.90
44047;DHT22;29713;-33.888;151.150;2023-04-03T15:32:49;18.30;99.90
44047;DHT22;29713;-33.888;151.150;2023-04-03T15:35:16;18.30;99.90
44047;DHT22;29713;-33.888;151.150;2023-04-03T15:37:44;18.30;99.90
44047;DHT22;29713;-33.888;151.150;2023-04-03T15:40:12;18.30;99.90
44047;DHT22;29713;-33.888;151.150;2023-04-03T15:42:39;18.30;99.90
44047;DHT22;29713;-33.888;151.150;2023-04-03T15:45:08;18.20;99.90
44047;DHT22;29713;-33.888;151.150;2023-04-03T15:47:35;18.20;99.90
44047;DHT22;29713;-33.888;151.150;2023-04-03T15:50:03;18.20;99.90
44047;DHT22;29713;-33.888;151.150;2023-04-03T15:52:33;18.10;99.90
44047;DHT22;29713;-33.888;151.150;2023-04-03T15:55:01;18.20;99.90
44047;DHT22;29713;-33.888;151.150;2023-04-03T15:57:28;18.10;99.90
44047;DHT22;29713;-33.888;151.150;2023-04-03T15:59:56;18.10;99.90
44047;DHT22;29713;-33.888;151.150;2023-04-03T16:02:24;18.10;99.90
44047;DHT22;29713;-33.888;151.150;2023-04-03T16:04:54;18.10;99.90
44047;DHT22;29713;-33.888;151.150;2023-04-03T16:07:22;18.10;99.90
44047;DHT22;29713;-33.888;151.150;2023-04-03T16:09:49;18.00;99.90
44047;DHT22;29713;-33.888;151.150;2023-04-03T16:12:17;18.00;99.90
44047;DHT22;29713;-33.888;151.150;2023-04-03T16:14:44;18.00;99.90
44047;DHT22;29713;-33.888;151.150;2023-04-03T16:17:11;18.00;99.90
44047;DHT22;29713;-33.888;151.150;2023-04-03T16:19:39;18.00;99.90
44047;DHT22;29713;-33.888;151.150;2023-04-03T16:22:06;18.00;99.90
44047;DHT22;29713;-33.888;151.150;2023-04-03T16:24:33;18.00;99.90
44047;DHT22;29713;-33.888;151.150;2023-04-03T16:27:02;18.00;99.90
44047;DHT22;29713;-33.888;151.150;2023-04-03T16:29:29;18.00;99.90
44047;DHT22;29713;-33.888;151.150;2023-04-03T16:31:57;18.00;99.90
44047;DHT22;29713;-33.888;151.150;2023-04-03T16:34:25;17.90;99.90
44047;DHT22;29713;-33.888;151.150;2023-04-03T16:36:53;18.00;99.90
44047;DHT22;29713;-33.888;151.150;2023-04-03T16:39:20;18.00;99.90
44047;DHT22;29713;-33.888;151.150;2023-04-03T16:41:48;18.00;99.90
44047;DHT22;29713;-33.888;151.150;2023-04-03T16:44:15;18.00;99.90
44047;DHT22;29713;-33.888;151.150;2023-04-03T16:46:42;18.00;99.90
44047;DHT22;29713;-33.888;151.150;2023-04-03T16:49:10;17.90;99.90
44047;DHT22;29713;-33.888;151.150;2023-04-03T16:51:37;17.90;99.90
44047;DHT22;29713;-33.888;151.150;2023-04-03T16:54:04;18.00;99.90
44047;DHT22;29713;-33.888;151.150;2023-04-03T16:56:33;18.00;99.90
44047;DHT22;29713;-33.888;151.150;2023-04-03T16:59:00;17.90;99.90
44047;DHT22;29713;-33.888;151.150;2023-04-03T17:01:27;17.90;99.90
44047;DHT22;29713;-33.888;151.150;2023-04-03T17:03:54;17.90;99.90
44047;DHT22;29713;-33.888;151.150;2023-04-03T17:06:22;17.90;99.90
44047;DHT22;29713;-33.888;151.150;2023-04-03T17:08:50;17.80;99.90
44047;DHT22;29713;-33.888;151.150;2023-04-03T17:11:18;17.80;99.90